Portada
METAR-TAF:

METAR-TAF

Aeroports :

Aeroport d'Hèlsinki-Vantaa

Hèlsinki, Finlàndia

latitud: 60-19N, longitud: 024-58E, altitud: 51 m

Observació

L'informe es va fer fa 34 minuts, a les 16:50 UTC
Vent 16 kt del Oest
Temperatura 3°C
Humitat 60%
Pressió 1008 hPa
Visibilitat 10 km o més
sense núvols per sota de 1500 mi sense presència de cumulonimbus.

METAR: EFHK 211650Z 28016KT CAVOK 03/M04 Q1008 NOSIG

Hora: 19:24 (17:24 UTC)

Pronòstic

L'informe es va fer fa 2 hores i 54 minuts, a les 14:30 UTC
Pronòstic vàlid del 21 a les 15 UTC al 22 a les 15 UTC
Vent 20 kt del Oest/Nord-Oest amb ràfegues de 30 kt
Visibilitat 10 km o més
sense núvols per sota de 1500 mi sense presència de cumulonimbus.
Temporalment
l' 21 a les 15 UTC al 22 a les 03 UTC
Vent 18 kt del Oest/Nord-Oest
Evolucionant progressivament
l' 22 a les 03 UTC al 22 a les 05 UTC
Vent 10 kt del Nord-Oest

TAF: EFHK 211430Z 2115/2215 29020G30KT CAVOK TEMPO 2115/2203 29018KT BECMG 2203/2205 31010KT

Observacions i pronòstics meteorològics de més de 4000 aeroports (METAR i TAF).

Les estacions disponibles són els punts grocs i vermells al mapa.

Posi el ratolí al punt desitjat per veure el nom de l'estació.

Feu clic per veure les observacions i els pronòstics meteorològics.

Per canviar el mapa: feu clic els botons verds amb una creu de color negre per apropar; al botó verd amb un guió per allunyar la imatge; o en les fletxes verdes per a mapes adjacents.


METAR-TAF: